createdAt,value
2018-10-02T00:00:21.676Z,2.70
2018-10-02T00:01:24.320Z,5.13
2018-10-02T00:02:27.023Z,2.33
2018-10-02T00:03:29.910Z,2.77
2018-10-02T00:04:32.614Z,2.93
2018-10-02T00:05:35.312Z,3.13
2018-10-02T00:06:38.033Z,1.90
2018-10-02T00:07:40.715Z,4.23
2018-10-02T00:08:43.467Z,3.80
2018-10-02T00:09:46.145Z,2.37
2018-10-02T00:10:54.270Z,3.90
2018-10-02T00:12:02.511Z,3.30
2018-10-02T00:13:10.624Z,2.17
2018-10-02T00:14:18.759Z,1.70
2018-10-02T00:15:21.484Z,2.97
2018-10-02T00:16:24.203Z,1.70
2018-10-02T00:17:26.878Z,2.70
2018-10-02T00:18:29.599Z,2.20
2018-10-02T00:19:32.393Z,1.93
2018-10-02T00:20:35.059Z,2.90
2018-10-02T00:21:37.727Z,3.33
2018-10-02T00:22:40.434Z,2.57
2018-10-02T00:23:43.095Z,2.43
2018-10-02T00:24:45.861Z,2.77
2018-10-02T00:25:48.542Z,2.13
2018-10-02T00:26:51.213Z,3.87
2018-10-02T00:27:54.107Z,3.40
2018-10-02T00:28:57.131Z,4.87
2018-10-02T00:29:59.966Z,2.23
2018-10-02T00:31:02.706Z,3.03
2018-10-02T00:32:05.541Z,1.93
2018-10-02T00:33:08.166Z,3.23
2018-10-02T00:34:11.083Z,2.60
2018-10-02T00:35:13.841Z,2.90
2018-10-02T00:36:16.486Z,2.40
2018-10-02T00:37:19.151Z,4.00
2018-10-02T00:38:21.840Z,3.83
2018-10-02T00:39:24.499Z,1.47
2018-10-02T00:40:27.291Z,2.13
2018-10-02T00:41:29.959Z,2.60
2018-10-02T00:42:32.705Z,2.70
2018-10-02T00:43:35.374Z,2.00
2018-10-02T00:44:38.072Z,1.47
2018-10-02T00:45:40.840Z,2.90
2018-10-02T00:46:43.498Z,2.67
2018-10-02T00:47:46.131Z,2.20
2018-10-02T00:48:48.786Z,3.13
2018-10-02T00:49:51.475Z,2.40
2018-10-02T00:50:54.255Z,2.97
2018-10-02T00:51:56.995Z,4.50
2018-10-02T00:52:59.689Z,4.27
2018-10-02T00:54:02.404Z,3.37
2018-10-02T00:55:05.287Z,2.63
2018-10-02T00:56:08.049Z,3.80
2018-10-02T00:57:10.734Z,5.63
2018-10-02T00:58:13.414Z,4.27
2018-10-02T00:59:16.086Z,6.40
2018-10-02T01:00:18.710Z,4.77
2018-10-02T01:01:21.500Z,3.60
2018-10-02T01:02:24.211Z,3.77
2018-10-02T01:03:26.896Z,4.83
2018-10-02T01:04:29.582Z,2.90
2018-10-02T01:05:32.270Z,3.77
2018-10-02T01:06:35.536Z,3.67
2018-10-02T01:07:38.261Z,2.93
2018-10-02T01:08:41.047Z,5.63
2018-10-02T01:09:43.700Z,2.97
2018-10-02T01:10:46.383Z,4.37
2018-10-02T01:11:49.138Z,3.07
2018-10-02T01:12:51.902Z,3.77
2018-10-02T01:13:54.587Z,3.30
2018-10-02T01:14:57.266Z,2.77
2018-10-02T01:15:59.921Z,2.50
2018-10-02T01:17:02.738Z,2.10
2018-10-02T01:18:05.705Z,2.10
2018-10-02T01:19:08.387Z,3.17
2018-10-02T01:20:11.142Z,3.07
2018-10-02T01:21:13.846Z,3.87
2018-10-02T01:22:16.610Z,3.77
2018-10-02T01:23:20.342Z,2.27
2018-10-02T01:24:23.027Z,1.73
2018-10-02T01:25:25.690Z,2.30
2018-10-02T01:26:28.323Z,1.97
2018-10-02T01:27:31.089Z,2.73
2018-10-02T01:28:33.771Z,2.33
2018-10-02T01:29:36.676Z,2.40
2018-10-02T01:30:39.459Z,3.07
2018-10-02T01:31:42.122Z,3.70
2018-10-02T01:32:44.892Z,4.00
2018-10-02T01:33:47.539Z,2.77
2018-10-02T01:34:50.184Z,1.67
2018-10-02T01:35:52.869Z,2.10
2018-10-02T01:36:55.543Z,3.30
2018-10-02T01:37:58.210Z,2.57
2018-10-02T01:39:00.858Z,2.77
2018-10-02T01:40:03.645Z,2.87
2018-10-02T01:41:06.413Z,2.17
2018-10-02T01:42:09.075Z,3.63
2018-10-02T01:43:11.855Z,2.47
2018-10-02T01:44:14.541Z,3.03
2018-10-02T01:45:17.223Z,4.33
2018-10-02T01:46:19.901Z,1.97
2018-10-02T01:47:22.553Z,2.37
2018-10-02T01:48:25.500Z,2.67
2018-10-02T01:49:28.194Z,2.97
2018-10-02T01:50:30.889Z,2.20
2018-10-02T01:51:33.619Z,2.30
2018-10-02T01:52:36.404Z,3.13
2018-10-02T01:53:39.141Z,3.40
2018-10-02T01:54:41.803Z,3.10
2018-10-02T01:55:44.486Z,2.27
2018-10-02T01:56:47.132Z,2.93
2018-10-02T01:57:49.810Z,1.90
2018-10-02T01:58:52.566Z,3.60
2018-10-02T01:59:55.243Z,3.30
2018-10-02T02:00:57.934Z,3.37
2018-10-02T02:02:00.598Z,4.10
2018-10-02T02:03:03.242Z,2.53
2018-10-02T02:04:06.011Z,3.03
2018-10-02T02:05:09.471Z,3.87
2018-10-02T02:06:12.140Z,2.60
2018-10-02T02:07:14.814Z,2.87
2018-10-02T02:08:17.540Z,2.30
2018-10-02T02:09:20.267Z,3.37
2018-10-02T02:10:22.894Z,2.53
2018-10-02T02:11:25.786Z,1.83
2018-10-02T02:12:28.462Z,3.57
2018-10-02T02:13:31.135Z,2.17
2018-10-02T02:14:33.922Z,3.13
2018-10-02T02:15:36.595Z,2.57
2018-10-02T02:16:39.275Z,3.00
2018-10-02T02:17:41.929Z,2.53
2018-10-02T02:18:44.608Z,1.90
2018-10-02T02:19:47.299Z,2.07
2018-10-02T02:20:49.954Z,2.27
2018-10-02T02:21:52.657Z,2.47
2018-10-02T02:22:55.311Z,2.40
2018-10-02T02:23:57.936Z,2.27
2018-10-02T02:25:00.686Z,3.33
2018-10-02T02:26:03.406Z,2.33
2018-10-02T02:27:06.159Z,2.07
2018-10-02T02:28:08.861Z,2.20
2018-10-02T02:29:11.503Z,2.63
2018-10-02T02:30:14.263Z,3.93
2018-10-02T02:31:17.122Z,1.80
2018-10-02T02:32:19.936Z,2.67
2018-10-02T02:33:22.657Z,2.47
2018-10-02T02:34:25.330Z,2.93
2018-10-02T02:35:28.091Z,3.00
2018-10-02T02:36:30.749Z,2.73
2018-10-02T02:37:33.454Z,2.70
2018-10-02T02:38:36.115Z,1.93
2018-10-02T02:39:38.814Z,3.57
2018-10-02T02:40:41.620Z,4.40
2018-10-02T02:41:44.300Z,2.90
2018-10-02T02:42:46.998Z,2.27
2018-10-02T02:43:49.646Z,3.97
2018-10-02T02:44:52.378Z,2.13
2018-10-02T02:45:55.177Z,2.67
2018-10-02T02:47:03.483Z,2.67
2018-10-02T02:48:11.625Z,1.73
2018-10-02T02:49:19.783Z,1.70
2018-10-02T02:50:27.919Z,2.77
2018-10-02T02:51:32.178Z,2.10
2018-10-02T02:52:39.253Z,3.33
2018-10-02T02:53:42.218Z,3.33
2018-10-02T02:54:44.939Z,2.43
2018-10-02T02:55:47.642Z,2.60
2018-10-02T02:56:50.403Z,2.37
2018-10-02T02:57:53.082Z,3.50
2018-10-02T02:58:56.342Z,2.63
2018-10-02T02:59:58.986Z,4.53
2018-10-02T03:01:01.635Z,4.90
2018-10-02T03:02:04.625Z,2.03
2018-10-02T03:03:07.380Z,2.40
2018-10-02T03:04:10.054Z,3.57
2018-10-02T03:05:12.746Z,1.50
2018-10-02T03:06:15.502Z,1.73
2018-10-02T03:07:18.254Z,2.50
2018-10-02T03:08:20.928Z,1.47
2018-10-02T03:09:23.573Z,3.43
2018-10-02T03:10:26.231Z,2.63
2018-10-02T03:11:28.883Z,2.00
2018-10-02T03:12:31.647Z,2.80
2018-10-02T03:13:34.287Z,3.23
2018-10-02T03:14:36.962Z,3.07
2018-10-02T03:15:39.637Z,2.17
2018-10-02T03:16:42.465Z,3.23
2018-10-02T03:17:45.232Z,3.13
2018-10-02T03:18:47.935Z,3.30
2018-10-02T03:19:50.703Z,4.20
2018-10-02T03:20:53.346Z,2.87
2018-10-02T03:21:56.016Z,3.70
2018-10-02T03:22:58.789Z,3.53
2018-10-02T03:24:01.546Z,4.07
2018-10-02T03:25:04.275Z,3.37
2018-10-02T03:26:07.018Z,2.77
2018-10-02T03:27:09.675Z,3.40
2018-10-02T03:28:12.507Z,3.90
2018-10-02T03:29:15.139Z,2.60
2018-10-02T03:30:19.074Z,2.60
2018-10-02T03:31:21.731Z,3.87
2018-10-02T03:32:24.424Z,1.93
2018-10-02T03:33:27.131Z,2.00
2018-10-02T03:34:29.815Z,2.80
2018-10-02T03:35:32.447Z,3.70
2018-10-02T03:36:35.088Z,2.77
2018-10-02T03:37:37.758Z,2.87
2018-10-02T03:38:40.474Z,1.70
2018-10-02T03:39:43.255Z,5.10
2018-10-02T03:40:45.939Z,2.57
2018-10-02T03:41:48.636Z,3.07
2018-10-02T03:42:51.392Z,1.43
2018-10-02T03:43:54.088Z,3.50
2018-10-02T03:44:56.729Z,3.00
2018-10-02T03:45:59.363Z,2.03
2018-10-02T03:47:02.029Z,3.03
2018-10-02T03:48:08.420Z,2.57
2018-10-02T03:49:11.241Z,2.70
2018-10-02T03:50:13.881Z,2.43
2018-10-02T03:51:16.568Z,3.63
2018-10-02T03:52:19.252Z,3.93
2018-10-02T03:53:21.946Z,3.07
2018-10-02T03:54:24.895Z,2.67
2018-10-02T03:55:27.559Z,2.50
2018-10-02T03:56:30.238Z,2.60
2018-10-02T03:57:33.243Z,3.77
2018-10-02T03:58:35.916Z,3.40
2018-10-02T03:59:38.627Z,2.93
2018-10-02T04:00:41.283Z,2.77
2018-10-02T04:01:43.935Z,3.70
2018-10-02T04:02:46.620Z,2.57
2018-10-02T04:03:49.539Z,4.90
2018-10-02T04:04:52.286Z,1.33
2018-10-02T04:05:54.950Z,2.00
2018-10-02T04:06:57.631Z,2.80
2018-10-02T04:08:00.326Z,5.57
2018-10-02T04:09:04.550Z,2.33
2018-10-02T04:10:07.295Z,2.50
2018-10-02T04:11:09.949Z,2.67
2018-10-02T04:12:12.566Z,2.47
2018-10-02T04:13:15.332Z,2.87
2018-10-02T04:14:17.871Z,3.70
2018-10-02T04:15:20.563Z,3.80
2018-10-02T04:16:23.236Z,4.60
2018-10-02T04:17:26.548Z,4.23
2018-10-02T04:18:29.243Z,4.03
2018-10-02T04:19:31.955Z,2.73
2018-10-02T04:20:34.752Z,3.40
2018-10-02T04:21:37.633Z,3.93
2018-10-02T04:22:40.271Z,3.93
2018-10-02T04:23:42.962Z,2.83
2018-10-02T04:24:46.568Z,3.10
2018-10-02T04:25:49.178Z,3.33
2018-10-02T04:26:51.837Z,3.50
2018-10-02T04:27:54.513Z,3.20
2018-10-02T04:28:57.155Z,2.73
2018-10-02T04:29:59.778Z,4.90
2018-10-02T04:31:02.511Z,2.97
2018-10-02T04:32:05.163Z,2.10
2018-10-02T04:33:07.766Z,3.43
2018-10-02T04:34:10.477Z,4.43
2018-10-02T04:35:17.332Z,1.40
2018-10-02T04:36:20.913Z,3.30
2018-10-02T04:37:31.764Z,3.10
2018-10-02T04:38:36.534Z,3.10
2018-10-02T04:39:39.532Z,3.33
2018-10-02T04:40:47.816Z,2.57
2018-10-02T04:41:55.786Z,4.80
2018-10-02T04:43:00.002Z,3.63
2018-10-02T04:44:07.363Z,3.13
2018-10-02T04:45:17.135Z,4.27
2018-10-02T04:46:26.030Z,3.43
2018-10-02T04:47:34.336Z,5.03
2018-10-02T04:48:42.111Z,3.20
2018-10-02T04:49:56.302Z,2.90
2018-10-02T04:51:02.798Z,2.47
2018-10-02T04:52:08.416Z,2.90
2018-10-02T04:53:13.524Z,3.60
2018-10-02T04:54:21.404Z,2.90
2018-10-02T04:55:26.079Z,6.23
2018-10-02T04:56:28.747Z,3.13
2018-10-02T04:57:31.536Z,4.43
2018-10-02T04:58:35.387Z,2.90
2018-10-02T04:59:39.008Z,2.97
2018-10-02T05:00:42.627Z,2.80
2018-10-02T05:01:45.695Z,2.37
2018-10-02T05:02:48.338Z,3.33
2018-10-02T05:03:51.098Z,2.87
2018-10-02T05:04:53.774Z,3.40
2018-10-02T05:05:56.827Z,3.43
2018-10-02T05:06:59.482Z,2.23
2018-10-02T05:08:02.074Z,4.17
2018-10-02T05:09:06.684Z,2.63
2018-10-02T05:10:10.178Z,3.40
2018-10-02T05:11:12.812Z,3.23
2018-10-02T05:12:15.413Z,3.13
2018-10-02T05:13:18.054Z,2.97
2018-10-02T05:14:20.767Z,3.00
2018-10-02T05:15:23.394Z,2.50
2018-10-02T05:16:29.100Z,2.30
2018-10-02T05:17:31.786Z,3.80
2018-10-02T05:18:34.730Z,2.27
2018-10-02T05:19:37.706Z,2.50
2018-10-02T05:20:40.382Z,3.60
2018-10-02T05:21:43.026Z,2.90
2018-10-02T05:22:45.646Z,2.57
2018-10-02T05:23:48.422Z,2.63
2018-10-02T05:24:51.795Z,2.57
2018-10-02T05:25:54.598Z,2.63
2018-10-02T05:26:57.291Z,2.13
2018-10-02T05:28:00.095Z,2.37
2018-10-02T05:29:03.091Z,1.93
2018-10-02T05:30:05.825Z,3.10
2018-10-02T05:31:08.642Z,4.90
2018-10-02T05:32:11.534Z,4.10
2018-10-02T05:33:14.118Z,2.50
2018-10-02T05:34:16.814Z,3.27
2018-10-02T05:35:19.658Z,4.80
2018-10-02T05:36:22.551Z,4.23
2018-10-02T05:37:25.638Z,3.47
2018-10-02T05:38:28.283Z,4.47
2018-10-02T05:39:30.900Z,4.40
2018-10-02T05:40:33.855Z,4.30
2018-10-02T05:41:37.776Z,4.20
2018-10-02T05:42:40.424Z,4.27
2018-10-02T05:43:43.184Z,3.63
2018-10-02T05:44:45.815Z,4.63
2018-10-02T05:45:48.539Z,4.37
2018-10-02T05:46:51.146Z,5.30
2018-10-02T05:47:54.131Z,3.43
2018-10-02T05:48:56.776Z,4.20
2018-10-02T05:49:59.447Z,4.07
2018-10-02T05:51:02.159Z,2.77
2018-10-02T05:52:04.851Z,2.67
2018-10-02T05:53:07.485Z,4.30
2018-10-02T05:54:10.119Z,4.20
2018-10-02T05:55:12.718Z,3.37
2018-10-02T05:56:15.437Z,3.10
2018-10-02T05:57:18.142Z,4.93
2018-10-02T05:58:20.836Z,5.70
2018-10-02T05:59:23.415Z,3.03
2018-10-02T06:00:26.019Z,2.20
2018-10-02T06:01:28.843Z,4.43
2018-10-02T06:02:32.235Z,3.00
2018-10-02T06:03:34.878Z,2.63
2018-10-02T06:04:37.532Z,4.23
2018-10-02T06:05:40.138Z,3.63
2018-10-02T06:06:42.879Z,3.70
2018-10-02T06:07:45.507Z,5.50
2018-10-02T06:08:48.134Z,5.40
2018-10-02T06:09:50.781Z,4.13
2018-10-02T06:10:53.419Z,2.67
2018-10-02T06:11:56.061Z,5.70
2018-10-02T06:12:58.703Z,4.07
2018-10-02T06:14:01.323Z,2.63
2018-10-02T06:15:04.161Z,3.30
2018-10-02T06:16:06.919Z,3.30
2018-10-02T06:17:09.767Z,3.53
2018-10-02T06:18:12.282Z,3.23
2018-10-02T06:19:14.903Z,4.97
2018-10-02T06:20:17.623Z,3.13
2018-10-02T06:21:20.283Z,2.83
2018-10-02T06:22:23.060Z,3.37
2018-10-02T06:23:25.701Z,2.97
2018-10-02T06:24:28.327Z,4.13
2018-10-02T06:25:30.973Z,2.20
2018-10-02T06:26:33.639Z,3.63
2018-10-02T06:27:36.358Z,3.27
2018-10-02T06:28:38.994Z,5.50
2018-10-02T06:29:41.619Z,4.53
2018-10-02T06:30:44.279Z,5.33
2018-10-02T06:31:46.914Z,6.00
2018-10-02T06:32:49.760Z,2.70
2018-10-02T06:33:52.399Z,3.83
2018-10-02T06:34:55.030Z,4.77
2018-10-02T06:35:57.636Z,4.27
2018-10-02T06:37:00.283Z,3.70
2018-10-02T06:38:03.126Z,4.03
2018-10-02T06:39:07.257Z,5.23
2018-10-02T06:40:09.951Z,3.43
2018-10-02T06:41:12.618Z,4.23
2018-10-02T06:42:15.252Z,2.17
2018-10-02T06:43:17.991Z,2.03
2018-10-02T06:44:20.728Z,4.57
2018-10-02T06:45:23.435Z,2.63
2018-10-02T06:46:26.062Z,4.60
2018-10-02T06:47:28.702Z,3.03
2018-10-02T06:48:31.451Z,2.60
2018-10-02T06:49:34.106Z,2.23
2018-10-02T06:50:36.747Z,3.33
2018-10-02T06:51:39.401Z,3.33
2018-10-02T06:52:42.289Z,2.77
2018-10-02T06:53:44.814Z,3.43
2018-10-02T06:54:47.430Z,2.40
2018-10-02T06:55:50.179Z,4.53
2018-10-02T06:56:52.863Z,5.67
2018-10-02T06:57:55.520Z,3.73
2018-10-02T06:58:58.134Z,3.10
2018-10-02T07:00:00.750Z,3.40
2018-10-02T07:01:03.430Z,2.13
2018-10-02T07:02:06.090Z,4.80
2018-10-02T07:03:08.739Z,2.73
2018-10-02T07:04:11.824Z,4.70
2018-10-02T07:05:14.629Z,3.87
2018-10-02T07:06:17.322Z,2.87
2018-10-02T07:07:20.099Z,5.37
2018-10-02T07:08:22.873Z,2.20
2018-10-02T07:09:25.928Z,4.17
2018-10-02T07:10:28.870Z,4.83
2018-10-02T07:11:31.503Z,3.33
2018-10-02T07:12:34.263Z,3.30
2018-10-02T07:13:36.851Z,4.50
2018-10-02T07:14:39.645Z,3.80
2018-10-02T07:15:42.366Z,3.60
2018-10-02T07:16:45.061Z,3.50
2018-10-02T07:17:47.869Z,4.23
2018-10-02T07:18:51.587Z,2.93
2018-10-02T07:19:54.427Z,2.77
2018-10-02T07:20:57.134Z,3.47
2018-10-02T07:21:59.796Z,2.53
2018-10-02T07:23:02.461Z,2.43
2018-10-02T07:24:05.162Z,2.40
2018-10-02T07:25:07.974Z,5.93
2018-10-02T07:26:10.887Z,3.30
2018-10-02T07:27:13.725Z,4.50
2018-10-02T07:28:16.306Z,3.20
2018-10-02T07:29:18.959Z,4.43
2018-10-02T07:30:21.813Z,3.50
2018-10-02T07:31:25.077Z,3.97
2018-10-02T07:32:27.731Z,4.87
2018-10-02T07:33:30.374Z,2.50
2018-10-02T07:34:33.363Z,3.77
2018-10-02T07:35:36.387Z,3.80
2018-10-02T07:36:39.114Z,3.53
2018-10-02T07:37:41.835Z,4.27
2018-10-02T07:38:44.648Z,3.53
2018-10-02T07:39:47.254Z,3.50
2018-10-02T07:40:50.028Z,2.80
2018-10-02T07:41:54.002Z,4.97
2018-10-02T07:42:56.647Z,3.40
2018-10-02T07:43:59.450Z,3.47
2018-10-02T07:45:02.197Z,3.17
2018-10-02T07:46:05.220Z,4.23
2018-10-02T07:47:09.006Z,3.60
2018-10-02T07:48:11.816Z,3.90
2018-10-02T07:49:14.499Z,2.70
2018-10-02T07:50:17.455Z,3.17
2018-10-02T07:51:20.386Z,3.30
2018-10-02T07:52:23.085Z,3.60
2018-10-02T07:53:25.841Z,2.93
2018-10-02T07:54:29.299Z,3.30
2018-10-02T07:55:32.016Z,6.73
2018-10-02T07:56:34.845Z,4.73
2018-10-02T07:57:37.483Z,3.77
2018-10-02T07:58:40.114Z,4.00
2018-10-02T07:59:42.812Z,4.67
2018-10-02T08:00:45.492Z,3.07
2018-10-02T08:01:48.302Z,2.93
2018-10-02T08:02:51.961Z,2.90
2018-10-02T08:03:55.541Z,4.60
2018-10-02T08:04:58.308Z,5.00
2018-10-02T08:06:01.041Z,2.77
2018-10-02T08:07:03.813Z,2.17
2018-10-02T08:08:07.495Z,3.20
2018-10-02T08:09:11.123Z,3.30
2018-10-02T08:10:13.940Z,2.57
2018-10-02T08:11:16.625Z,3.03
2018-10-02T08:12:19.598Z,3.10
2018-10-02T08:13:22.149Z,4.47
2018-10-02T08:14:24.865Z,3.30
2018-10-02T08:15:27.523Z,3.73
2018-10-02T08:16:30.239Z,4.43
2018-10-02T08:17:33.086Z,2.93
2018-10-02T08:18:35.755Z,4.37
2018-10-02T08:19:38.505Z,4.70
2018-10-02T08:20:41.864Z,2.77
2018-10-02T08:21:44.492Z,3.77
2018-10-02T08:22:47.139Z,6.40
2018-10-02T08:23:49.838Z,3.00
2018-10-02T08:24:52.464Z,4.53
2018-10-02T08:25:55.178Z,3.73
2018-10-02T08:26:57.925Z,3.93
2018-10-02T08:28:00.611Z,4.27
2018-10-02T08:29:03.295Z,3.83
2018-10-02T08:30:07.280Z,4.53
2018-10-02T08:31:10.893Z,3.13
2018-10-02T08:32:13.731Z,3.60
2018-10-02T08:33:16.491Z,3.17
2018-10-02T08:34:19.786Z,2.63
2018-10-02T08:35:22.515Z,4.30
2018-10-02T08:36:25.929Z,3.97
2018-10-02T08:37:28.598Z,2.90
2018-10-02T08:38:32.046Z,3.43
2018-10-02T08:39:34.741Z,3.80
2018-10-02T08:40:37.407Z,5.57
2018-10-02T08:41:40.534Z,5.23
2018-10-02T08:42:43.236Z,4.43
2018-10-02T08:43:46.153Z,5.37
2018-10-02T08:44:49.803Z,3.37
2018-10-02T08:45:52.465Z,4.73
2018-10-02T08:46:55.716Z,6.10
2018-10-02T08:47:58.387Z,4.93
2018-10-02T08:49:01.127Z,3.30
2018-10-02T08:50:03.903Z,4.80
2018-10-02T08:51:06.723Z,2.97
2018-10-02T08:52:09.487Z,4.57
2018-10-02T08:53:12.096Z,4.90
2018-10-02T08:54:14.878Z,3.47
2018-10-02T08:55:17.538Z,2.57
2018-10-02T08:56:20.758Z,4.77
2018-10-02T08:57:23.431Z,3.73
2018-10-02T08:58:26.131Z,2.80
2018-10-02T08:59:28.929Z,3.23
2018-10-02T09:00:31.721Z,2.67
2018-10-02T09:01:34.511Z,3.50
2018-10-02T09:02:37.139Z,4.33
2018-10-02T09:03:39.806Z,3.63
2018-10-02T09:04:42.611Z,4.20
2018-10-02T09:05:45.290Z,3.20
2018-10-02T09:06:48.011Z,3.20
2018-10-02T09:07:50.796Z,4.43
2018-10-02T09:08:53.452Z,4.03
2018-10-02T09:09:56.195Z,4.40
2018-10-02T09:10:58.838Z,6.23
2018-10-02T09:12:01.524Z,3.53
2018-10-02T09:13:04.228Z,2.80
2018-10-02T09:14:07.239Z,2.93
2018-10-02T09:15:12.323Z,2.63
2018-10-02T09:16:13.010Z,3.73
2018-10-02T09:17:15.586Z,3.23
2018-10-02T09:18:18.237Z,2.80
2018-10-02T09:19:20.945Z,3.57
2018-10-02T09:20:23.966Z,4.60
2018-10-02T09:21:26.711Z,4.70
2018-10-02T09:22:29.376Z,3.63
2018-10-02T09:23:32.298Z,2.93
2018-10-02T09:24:34.971Z,4.43
2018-10-02T09:25:37.819Z,3.83
2018-10-02T09:26:40.575Z,6.87
2018-10-02T09:27:43.319Z,3.80
2018-10-02T09:28:45.934Z,4.03
2018-10-02T09:29:54.211Z,4.37
2018-10-02T09:31:02.418Z,2.37
2018-10-02T09:32:10.576Z,3.20
2018-10-02T09:33:18.802Z,3.87
2018-10-02T09:34:27.010Z,3.93
2018-10-02T09:37:42.332Z,4.33
2018-10-02T09:38:50.452Z,4.83
2018-10-02T09:39:58.571Z,4.40
2018-10-02T09:41:06.673Z,5.00
2018-10-02T09:42:14.848Z,3.77
2018-10-02T09:43:25.221Z,4.03
2018-10-02T09:44:27.829Z,4.60
2018-10-02T09:45:30.733Z,3.43
2018-10-02T09:46:33.437Z,3.90
2018-10-02T09:47:36.224Z,3.63
2018-10-02T09:48:38.968Z,5.33
2018-10-02T09:49:41.547Z,3.90
2018-10-02T09:50:44.237Z,4.70
2018-10-02T09:51:46.965Z,4.83
2018-10-02T09:52:49.973Z,3.77
2018-10-02T09:53:52.659Z,4.13
2018-10-02T09:54:55.373Z,4.17
2018-10-02T09:55:58.075Z,3.90
2018-10-02T09:57:00.804Z,5.63
2018-10-02T09:58:03.903Z,3.37
2018-10-02T09:59:06.628Z,5.97
2018-10-02T10:00:13.859Z,4.97
2018-10-02T10:01:22.063Z,4.23
2018-10-02T10:02:30.237Z,2.73
2018-10-02T10:03:33.103Z,4.10
2018-10-02T10:04:35.709Z,4.50
2018-10-02T10:05:38.416Z,5.30
2018-10-02T10:06:41.076Z,5.40
2018-10-02T10:07:43.767Z,4.93
2018-10-02T10:08:46.542Z,6.87
2018-10-02T10:09:49.227Z,5.13
2018-10-02T10:10:51.903Z,4.43
2018-10-02T10:11:54.590Z,6.00
2018-10-02T10:12:57.255Z,9.07
2018-10-02T10:14:00.047Z,4.83
2018-10-02T10:15:02.827Z,5.67
2018-10-02T10:16:05.534Z,6.37
2018-10-02T10:17:08.211Z,4.20
2018-10-02T10:18:10.860Z,8.30
2018-10-02T10:19:13.630Z,6.17
2018-10-02T10:20:16.363Z,7.30
2018-10-02T10:21:19.168Z,7.20
2018-10-02T10:22:21.811Z,6.07
2018-10-02T10:23:24.487Z,6.90
2018-10-02T10:24:27.207Z,10.13
2018-10-02T10:25:29.831Z,7.87
2018-10-02T10:26:32.532Z,6.83
2018-10-02T10:27:35.292Z,9.93
2018-10-02T10:28:38.045Z,10.17
2018-10-02T10:29:40.752Z,9.83
2018-10-02T10:30:43.481Z,8.90
2018-10-02T10:31:46.147Z,8.57
2018-10-02T10:32:48.803Z,7.67
2018-10-02T10:33:51.818Z,8.20
2018-10-02T10:34:54.645Z,9.93
2018-10-02T10:35:57.362Z,10.13
2018-10-02T10:37:00.126Z,7.63
2018-10-02T10:38:02.819Z,8.47
2018-10-02T10:39:07.499Z,8.10
2018-10-02T10:40:10.279Z,9.43
2018-10-02T10:41:12.977Z,9.07
2018-10-02T10:42:15.685Z,6.43
2018-10-02T10:43:18.337Z,9.40
2018-10-02T10:44:21.017Z,8.60
2018-10-02T10:45:23.792Z,7.97
2018-10-02T10:46:26.543Z,8.73
2018-10-02T10:47:30.034Z,8.90
2018-10-02T10:48:32.743Z,7.50
2018-10-02T10:49:35.471Z,8.97
2018-10-02T10:50:38.255Z,6.33
2018-10-02T10:51:40.926Z,6.13
2018-10-02T10:52:43.621Z,6.20
2018-10-02T10:53:46.307Z,8.73
2018-10-02T10:55:00.719Z,9.77
2018-10-02T10:56:03.479Z,7.20
2018-10-02T10:57:06.396Z,8.03
2018-10-02T10:58:09.041Z,7.83
2018-10-02T10:59:11.712Z,5.57
2018-10-02T11:00:14.463Z,7.70
2018-10-02T11:01:17.214Z,5.60
2018-10-02T11:02:19.927Z,7.40
2018-10-02T11:03:22.674Z,6.83
2018-10-02T11:04:25.354Z,7.37
2018-10-02T11:05:28.072Z,7.83
2018-10-02T11:06:30.818Z,7.80
2018-10-02T11:07:33.491Z,9.07
2018-10-02T11:08:36.171Z,9.40
2018-10-02T11:09:38.865Z,5.97
2018-10-02T11:10:41.556Z,5.80
2018-10-02T11:11:44.355Z,7.47
2018-10-02T11:12:47.119Z,5.73
2018-10-02T11:13:49.777Z,6.30
2018-10-02T11:14:52.445Z,7.97
2018-10-02T11:15:55.124Z,5.80
2018-10-02T11:16:57.891Z,4.03
2018-10-02T11:18:00.595Z,6.83
2018-10-02T11:19:03.284Z,6.70
2018-10-02T11:20:06.171Z,5.87
2018-10-02T11:21:08.918Z,6.13
2018-10-02T11:22:11.712Z,7.77
2018-10-02T11:23:14.374Z,5.87
2018-10-02T11:24:17.008Z,8.40
2018-10-02T11:25:19.699Z,6.93
2018-10-02T11:26:22.431Z,5.13
2018-10-02T11:27:25.207Z,5.23
2018-10-02T11:28:27.935Z,8.57
2018-10-02T11:29:30.567Z,5.40
2018-10-02T11:30:33.272Z,6.60
2018-10-02T11:31:36.059Z,6.30
2018-10-02T11:32:38.833Z,5.77
2018-10-02T11:33:41.500Z,5.73
2018-10-02T11:34:44.186Z,4.97
2018-10-02T11:35:46.847Z,4.97
2018-10-02T11:36:49.538Z,6.13
2018-10-02T11:37:52.331Z,7.20
2018-10-02T11:38:54.987Z,5.93
2018-10-02T11:39:57.634Z,6.80
2018-10-02T11:41:00.291Z,6.67
2018-10-02T11:42:02.959Z,7.53
2018-10-02T11:43:05.915Z,5.43
2018-10-02T11:44:08.683Z,7.30
2018-10-02T11:45:11.330Z,5.40
2018-10-02T11:46:14.514Z,5.57
2018-10-02T11:47:17.203Z,6.90
2018-10-02T11:48:19.826Z,5.17
2018-10-02T11:49:22.705Z,5.53
2018-10-02T11:50:25.379Z,5.33
2018-10-02T11:51:28.050Z,6.03
2018-10-02T11:52:30.718Z,4.37
2018-10-02T11:53:33.520Z,5.63
2018-10-02T11:54:36.215Z,6.80
2018-10-02T11:55:38.994Z,4.50
2018-10-02T11:56:41.606Z,6.67
2018-10-02T11:57:44.271Z,7.60
2018-10-02T11:58:47.078Z,6.10
2018-10-02T11:59:49.715Z,4.93
2018-10-02T12:00:52.385Z,5.63
2018-10-02T12:01:55.075Z,5.13
2018-10-02T12:02:57.775Z,6.33
2018-10-02T12:04:00.636Z,4.90
2018-10-02T12:05:03.366Z,4.33
2018-10-02T12:06:06.114Z,5.43
2018-10-02T12:07:08.781Z,3.93
2018-10-02T12:08:11.479Z,4.67
2018-10-02T12:09:14.337Z,5.23
2018-10-02T12:10:16.968Z,5.03
2018-10-02T12:11:19.690Z,7.70
2018-10-02T12:12:23.155Z,7.63
2018-10-02T12:13:25.892Z,5.77
2018-10-02T12:14:29.632Z,5.80
2018-10-02T12:15:32.100Z,6.67
2018-10-02T12:16:34.809Z,5.37
2018-10-02T12:17:37.498Z,5.87
2018-10-02T12:18:40.237Z,4.53
2018-10-02T12:19:43.354Z,4.10
2018-10-02T12:20:46.077Z,5.23
2018-10-02T12:21:48.746Z,3.30
2018-10-02T12:22:51.374Z,4.70
2018-10-02T12:23:54.050Z,5.17
2018-10-02T12:24:57.063Z,6.43
2018-10-02T12:25:59.735Z,6.47
2018-10-02T12:27:02.416Z,5.53
2018-10-02T12:28:05.119Z,5.03
2018-10-02T12:29:07.782Z,6.30
2018-10-02T12:30:10.844Z,6.80
2018-10-02T12:31:13.526Z,6.93
2018-10-02T12:32:16.147Z,6.57
2018-10-02T12:33:18.826Z,6.87
2018-10-02T12:34:21.483Z,6.47
2018-10-02T12:35:24.135Z,8.17
2018-10-02T12:36:26.821Z,6.90
2018-10-02T12:37:30.129Z,6.93
2018-10-02T12:38:32.852Z,7.20
2018-10-02T12:39:35.474Z,3.70
2018-10-02T12:40:38.527Z,6.93
2018-10-02T12:41:41.241Z,5.13
2018-10-02T12:42:43.911Z,5.40
2018-10-02T12:43:46.619Z,7.67
2018-10-02T12:44:49.427Z,5.67
2018-10-02T12:45:52.486Z,6.50
2018-10-02T12:46:55.223Z,4.53
2018-10-02T12:47:57.914Z,6.47
2018-10-02T12:49:01.559Z,6.63
2018-10-02T12:50:05.159Z,6.70
2018-10-02T12:51:08.214Z,5.03
2018-10-02T12:52:10.940Z,4.53
2018-10-02T12:53:13.598Z,6.77
2018-10-02T12:54:16.201Z,4.30
2018-10-02T12:55:18.985Z,3.37
2018-10-02T12:56:22.867Z,7.53
2018-10-02T12:57:25.514Z,6.90
2018-10-02T12:58:28.198Z,8.33
2018-10-02T12:59:30.922Z,6.57
2018-10-02T13:00:33.602Z,5.77
2018-10-02T13:01:36.601Z,6.20
2018-10-02T13:02:39.271Z,4.40
2018-10-02T13:03:41.974Z,5.10
2018-10-02T13:04:44.632Z,4.13
2018-10-02T13:05:47.383Z,4.60
2018-10-02T13:06:50.423Z,4.43
2018-10-02T13:07:53.075Z,5.00
2018-10-02T13:08:55.752Z,4.33
2018-10-02T13:09:58.557Z,4.93
2018-10-02T13:11:01.197Z,5.83
2018-10-02T13:12:04.140Z,5.10
2018-10-02T13:13:07.109Z,4.37
2018-10-02T13:14:09.842Z,4.27
2018-10-02T13:15:12.520Z,6.20
2018-10-02T13:16:15.214Z,5.10
2018-10-02T13:17:18.036Z,4.70
2018-10-02T13:18:20.738Z,5.77
2018-10-02T13:19:23.412Z,5.90
2018-10-02T13:20:26.139Z,7.03
2018-10-02T13:21:28.827Z,4.67
2018-10-02T13:22:32.085Z,5.63
2018-10-02T13:23:34.800Z,5.63
2018-10-02T13:24:37.501Z,3.20
2018-10-02T13:25:40.234Z,4.63
2018-10-02T13:26:43.675Z,3.93
2018-10-02T13:27:46.670Z,5.07
2018-10-02T13:28:49.363Z,4.00
2018-10-02T13:29:52.030Z,3.47
2018-10-02T13:30:55.691Z,4.90
2018-10-02T13:31:58.480Z,5.70
2018-10-02T13:33:01.479Z,6.50
2018-10-02T13:34:04.177Z,3.73
2018-10-02T13:35:07.059Z,5.47
2018-10-02T13:36:10.556Z,4.13
2018-10-02T13:37:13.210Z,4.60
2018-10-02T13:38:16.346Z,5.30
2018-10-02T13:39:18.975Z,5.33
2018-10-02T13:40:21.691Z,5.67
2018-10-02T13:41:24.360Z,5.60
2018-10-02T13:42:27.993Z,5.37
2018-10-02T13:43:31.043Z,3.57
2018-10-02T13:44:33.883Z,6.40
2018-10-02T13:45:36.671Z,3.80
2018-10-02T13:46:39.698Z,4.63
2018-10-02T13:47:42.355Z,3.73
2018-10-02T13:48:45.432Z,3.63
2018-10-02T13:49:48.203Z,4.30
2018-10-02T13:50:50.964Z,4.27
2018-10-02T13:51:53.620Z,4.80
2018-10-02T13:52:56.292Z,3.37
2018-10-02T13:53:59.440Z,4.37
2018-10-02T13:55:02.199Z,3.90
2018-10-02T13:56:04.861Z,3.83
2018-10-02T13:57:07.519Z,5.57
2018-10-02T13:58:11.167Z,3.63
2018-10-02T13:59:13.799Z,4.67
2018-10-02T14:00:16.831Z,4.00
2018-10-02T14:01:19.588Z,5.17